createdAt,value
2019-04-01T00:01:11.063Z,102814.84
2019-04-01T00:03:40.454Z,102812.67
2019-04-01T00:06:09.852Z,102813.42
2019-04-01T00:08:39.259Z,102806.55
2019-04-01T00:11:08.650Z,102806.24
2019-04-01T00:13:38.039Z,102809.77
2019-04-01T00:16:07.439Z,102805.38
2019-04-01T00:18:36.830Z,102804.59
2019-04-01T00:21:06.221Z,102804.84
2019-04-01T00:23:35.631Z,102804.72
2019-04-01T00:26:05.024Z,102798.77
2019-04-01T00:28:34.873Z,102801.19
2019-04-01T00:31:04.371Z,102802.95
2019-04-01T00:33:33.752Z,102795.48
2019-04-01T00:36:03.147Z,102797.27
2019-04-01T00:38:32.556Z,102791.27
2019-04-01T00:41:01.951Z,102800.58
2019-04-01T00:43:41.516Z,102799.72
2019-04-01T00:46:12.271Z,102802.44
2019-04-01T00:48:41.660Z,102797.81
2019-04-01T00:51:11.069Z,102793.47
2019-04-01T00:53:40.735Z,102796.20
2019-04-01T00:56:10.120Z,102797.64
2019-04-01T00:58:39.525Z,102796.12
2019-04-01T01:01:08.982Z,102794.31
2019-04-01T01:03:38.375Z,102789.08
2019-04-01T01:06:07.798Z,102789.56
2019-04-01T01:08:37.192Z,102788.53
2019-04-01T01:11:06.570Z,102786.88
2019-04-01T01:13:35.989Z,102786.07
2019-04-01T01:16:05.371Z,102778.95
2019-04-01T01:18:34.766Z,102776.41
2019-04-01T01:21:04.176Z,102779.13
2019-04-01T01:23:33.559Z,102772.63
2019-04-01T01:26:02.964Z,102774.32
2019-04-01T01:28:32.374Z,102766.94
2019-04-01T01:31:01.836Z,102770.52
2019-04-01T01:33:31.230Z,102766.80
2019-04-01T01:36:00.642Z,102771.94
2019-04-01T01:38:30.038Z,102763.99
2019-04-01T01:40:59.434Z,102767.39
2019-04-01T01:43:28.843Z,102767.68
2019-04-01T01:45:58.245Z,102765.77
2019-04-01T01:48:27.631Z,102762.73
2019-04-01T01:50:57.511Z,102762.43
2019-04-01T01:53:26.152Z,102760.84
2019-04-01T01:55:55.510Z,102754.35
2019-04-01T01:58:24.916Z,102754.41
2019-04-01T02:00:55.940Z,102749.48
2019-04-01T02:03:25.330Z,102745.09
2019-04-01T02:05:54.755Z,102748.05
2019-04-01T02:08:24.211Z,102739.33
2019-04-01T02:10:53.606Z,102740.83
2019-04-01T02:13:23.102Z,102736.12
2019-04-01T02:15:52.482Z,102735.34
2019-04-01T02:18:21.870Z,102732.91
2019-04-01T02:20:51.278Z,102729.83
2019-04-01T02:23:20.670Z,102726.52
2019-04-01T02:25:50.069Z,102724.27
2019-04-01T02:28:19.476Z,102725.73
2019-04-01T02:30:48.867Z,102727.16
2019-04-01T02:33:18.254Z,102723.39
2019-04-01T02:35:47.657Z,102721.06
2019-04-01T02:38:17.054Z,102716.59
2019-04-01T02:40:46.446Z,102717.02
2019-04-01T02:43:15.892Z,102716.66
2019-04-01T02:45:45.499Z,102716.28
2019-04-01T02:48:14.880Z,102718.72
2019-04-01T02:50:54.148Z,102715.69
2019-04-01T02:53:23.526Z,102713.77
2019-04-01T02:55:52.905Z,102717.87
2019-04-01T02:58:22.557Z,102712.76
2019-04-01T03:00:52.081Z,102712.14
2019-04-01T03:03:21.477Z,102705.03
2019-04-01T03:05:50.866Z,102707.59
2019-04-01T03:08:20.254Z,102700.67
2019-04-01T03:10:49.640Z,102699.09
2019-04-01T03:13:19.038Z,102699.33
2019-04-01T03:15:48.423Z,102691.06
2019-04-01T03:18:18.013Z,102685.72
2019-04-01T03:20:47.424Z,102688.38
2019-04-01T03:23:16.812Z,102685.39
2019-04-01T03:25:46.205Z,102686.53
2019-04-01T03:28:15.606Z,102686.53
2019-04-01T03:30:45.006Z,102683.67
2019-04-01T03:33:14.382Z,102688.45
2019-04-01T03:35:43.777Z,102676.32
2019-04-01T03:38:13.177Z,102677.25
2019-04-01T03:40:42.558Z,102675.27
2019-04-01T03:43:11.992Z,102678.41
2019-04-01T03:45:41.598Z,102670.72
2019-04-01T03:48:10.987Z,102669.95
2019-04-01T03:50:40.393Z,102670.86
2019-04-01T03:53:09.769Z,102673.82
2019-04-01T03:55:39.156Z,102670.85
2019-04-01T03:58:08.567Z,102670.37
2019-04-01T04:00:37.948Z,102669.25
2019-04-01T04:03:07.333Z,102664.28
2019-04-01T04:05:36.751Z,102674.16
2019-04-01T04:08:06.137Z,102666.70
2019-04-01T04:10:35.527Z,102662.70
2019-04-01T04:13:04.987Z,102664.64
2019-04-01T04:15:34.905Z,102658.94
2019-04-01T04:18:04.310Z,102659.09
2019-04-01T04:20:33.713Z,102656.81
2019-04-01T04:23:03.099Z,102654.23
2019-04-01T04:25:32.551Z,102652.98
2019-04-01T04:28:01.943Z,102650.49
2019-04-01T04:30:31.330Z,102650.39
2019-04-01T04:33:00.958Z,102648.30
2019-04-01T04:35:30.385Z,102644.51
2019-04-01T04:37:59.746Z,102643.78
2019-04-01T04:40:29.142Z,102647.56
2019-04-01T04:42:58.818Z,102646.02
2019-04-01T04:45:28.201Z,102643.13
2019-04-01T04:47:57.582Z,102645.62
2019-04-01T04:50:26.996Z,102639.25
2019-04-01T04:52:56.387Z,102642.67
2019-04-01T04:55:25.766Z,102640.66
2019-04-01T04:57:55.171Z,102646.13
2019-04-01T05:00:24.556Z,102646.19
2019-04-01T05:02:53.959Z,102644.51
2019-04-01T05:05:23.341Z,102641.59
2019-04-01T05:07:52.747Z,102641.34
2019-04-01T05:10:22.161Z,102637.81
2019-04-01T05:12:51.541Z,102640.77
2019-04-01T05:15:20.937Z,102640.00
2019-04-01T05:17:50.351Z,102637.81
2019-04-01T05:20:19.763Z,102637.03
2019-04-01T05:22:50.150Z,102638.93
2019-04-01T05:25:19.556Z,102635.43
2019-04-01T05:27:50.874Z,102638.20
2019-04-01T05:30:20.345Z,102641.67
2019-04-01T05:32:54.679Z,102639.52
2019-04-01T05:35:25.173Z,102639.63
2019-04-01T05:37:55.992Z,102647.08
2019-04-01T05:40:25.966Z,102644.38
2019-04-01T05:42:55.855Z,102645.89
2019-04-01T05:45:25.253Z,102651.39
2019-04-01T05:47:55.180Z,102653.11
2019-04-01T05:50:24.578Z,102654.64
2019-04-01T05:52:54.039Z,102651.00
2019-04-01T05:55:23.732Z,102652.95
2019-04-01T05:57:53.337Z,102650.78
2019-04-01T06:00:24.435Z,102651.44
2019-04-01T06:02:53.907Z,102655.81
2019-04-01T06:05:26.150Z,102657.22
2019-04-01T06:07:55.972Z,102652.39
2019-04-01T06:10:24.633Z,102659.38
2019-04-01T06:12:54.190Z,102665.46
2019-04-01T06:15:23.874Z,102659.16
2019-04-01T06:17:53.355Z,102661.72
2019-04-01T06:20:22.762Z,102661.73
2019-04-01T06:22:52.217Z,102659.28
2019-04-01T06:25:21.683Z,102662.61
2019-04-01T06:27:51.191Z,102657.16
2019-04-01T06:30:20.566Z,102658.42
2019-04-01T06:32:49.968Z,102661.52
2019-04-01T06:35:19.362Z,102657.32
2019-04-01T06:37:48.826Z,102653.87
2019-04-01T06:40:18.661Z,102655.94
2019-04-01T06:42:47.462Z,102653.69
2019-04-01T06:45:16.880Z,102652.03
2019-04-01T06:47:46.342Z,102647.89
2019-04-01T06:50:15.819Z,102644.89
2019-04-01T06:52:45.202Z,102643.27
2019-04-01T06:55:14.605Z,102646.45
2019-04-01T06:57:44.016Z,102651.86
2019-04-01T07:00:14.641Z,102644.36
2019-04-01T07:02:44.035Z,102649.20
2019-04-01T07:05:13.592Z,102640.90
2019-04-01T07:07:43.054Z,102647.86
2019-04-01T07:10:12.584Z,102645.38
2019-04-01T07:12:42.067Z,102646.95
2019-04-01T07:15:11.593Z,102647.07
2019-04-01T07:17:41.551Z,102646.18
2019-04-01T07:20:11.137Z,102648.08
2019-04-01T07:22:40.515Z,102645.28
2019-04-01T07:25:10.539Z,102640.41
2019-04-01T07:27:40.009Z,102636.40
2019-04-01T07:30:10.306Z,102633.48
2019-04-01T07:32:39.768Z,102631.43
2019-04-01T07:35:09.520Z,102630.69
2019-04-01T07:37:38.247Z,102630.75
2019-04-01T07:40:07.738Z,102634.98
2019-04-01T07:42:37.247Z,102633.19
2019-04-01T07:45:07.967Z,102628.12
2019-04-01T07:47:37.584Z,102623.03
2019-04-01T07:50:07.711Z,102614.16
2019-04-01T07:52:37.116Z,102617.31
2019-04-01T07:55:09.712Z,102606.98
2019-04-01T07:57:39.196Z,102604.72
2019-04-01T08:00:08.915Z,102599.16
2019-04-01T08:02:38.327Z,102601.95
2019-04-01T08:05:08.761Z,102593.84
2019-04-01T08:07:38.181Z,102593.99
2019-04-01T08:10:09.176Z,102593.31
2019-04-01T08:12:38.639Z,102592.42
2019-04-01T08:15:08.944Z,102592.05
2019-04-01T08:17:38.336Z,102598.42
2019-04-01T08:20:08.063Z,102599.55
2019-04-01T08:22:37.472Z,102595.85
2019-04-01T08:25:08.194Z,102592.53
2019-04-01T08:27:37.905Z,102592.55
2019-04-01T08:30:11.266Z,102586.61
2019-04-01T08:32:40.736Z,102588.28
2019-04-01T08:35:10.815Z,102583.84
2019-04-01T08:37:40.837Z,102583.66
2019-04-01T08:40:11.213Z,102578.42
2019-04-01T08:42:40.704Z,102581.01
2019-04-01T08:45:10.733Z,102576.83
2019-04-01T08:47:40.229Z,102580.85
2019-04-01T08:50:10.241Z,102576.47
2019-04-01T08:52:39.712Z,102575.65
2019-04-01T08:55:10.111Z,102573.85
2019-04-01T08:57:39.586Z,102578.19
2019-04-01T09:00:09.701Z,102582.48
2019-04-01T09:02:39.081Z,102577.39
2019-04-01T09:05:08.848Z,102579.53
2019-04-01T09:07:38.286Z,102575.50
2019-04-01T09:10:08.078Z,102566.81
2019-04-01T09:12:37.593Z,102565.03
2019-04-01T09:15:08.045Z,102562.23
2019-04-01T09:17:40.310Z,102560.44
2019-04-01T09:20:08.725Z,102559.67
2019-04-01T09:22:38.123Z,102558.89
2019-04-01T09:25:07.728Z,102548.48
2019-04-01T09:27:37.220Z,102545.95
2019-04-01T09:30:08.508Z,102540.25
2019-04-01T09:32:37.908Z,102536.70
2019-04-01T09:35:08.353Z,102534.11
2019-04-01T09:37:37.744Z,102530.97
2019-04-01T09:40:08.159Z,102525.84
2019-04-01T09:42:37.837Z,102523.47
2019-04-01T09:45:09.579Z,102517.53
2019-04-01T09:47:55.563Z,102519.39
2019-04-01T09:50:25.372Z,102512.95
2019-04-01T09:52:53.969Z,102515.09
2019-04-01T09:55:23.333Z,102515.38
2019-04-01T09:57:52.720Z,102506.69
2019-04-01T10:00:22.715Z,102505.87
2019-04-01T10:02:52.131Z,102507.73
2019-04-01T10:05:21.543Z,102500.28
2019-04-01T10:07:51.095Z,102498.38
2019-04-01T10:10:20.547Z,102489.53
2019-04-01T10:12:49.947Z,102488.84
2019-04-01T10:15:19.410Z,102481.64
2019-04-01T10:17:48.837Z,102483.06
2019-04-01T10:20:18.535Z,102476.06
2019-04-01T10:22:47.957Z,102469.88
2019-04-01T10:25:17.361Z,102469.88
2019-04-01T10:27:46.758Z,102463.93
2019-04-01T10:30:16.688Z,102457.52
2019-04-01T10:32:46.098Z,102458.75
2019-04-01T10:35:15.820Z,102456.20
2019-04-01T10:37:44.476Z,102447.84
2019-04-01T10:40:14.621Z,102447.81
2019-04-01T10:42:44.017Z,102443.55
2019-04-01T10:45:14.027Z,102440.37
2019-04-01T10:47:43.436Z,102433.78
2019-04-01T10:50:14.479Z,102426.09
2019-04-01T10:52:44.360Z,102415.63
2019-04-01T10:55:14.159Z,102412.13
2019-04-01T10:57:43.940Z,102408.59
2019-04-01T11:00:14.678Z,102396.63
2019-04-01T11:02:44.431Z,102395.13
2019-04-01T11:05:14.618Z,102388.27
2019-04-01T11:07:44.201Z,102381.80
2019-04-01T11:10:13.926Z,102372.08
2019-04-01T11:12:42.589Z,102372.20
2019-04-01T11:15:15.572Z,102372.19
2019-04-01T11:17:44.573Z,102374.98
2019-04-01T11:20:14.081Z,102371.89
2019-04-01T11:22:43.490Z,102373.69
2019-04-01T11:25:13.348Z,102374.41
2019-04-01T11:27:42.730Z,102364.55
2019-04-01T11:30:13.820Z,102370.27
2019-04-01T11:32:43.595Z,102363.30
2019-04-01T11:35:13.223Z,102364.36
2019-04-01T11:37:42.617Z,102360.94
2019-04-01T11:40:13.295Z,102359.02
2019-04-01T11:42:42.770Z,102348.06
2019-04-01T11:45:13.294Z,102344.53
2019-04-01T11:47:42.697Z,102348.70
2019-04-01T11:50:12.619Z,102357.59
2019-04-01T11:52:42.232Z,102344.81
2019-04-01T11:55:11.858Z,102332.41
2019-04-01T11:57:41.299Z,102331.59
2019-04-01T12:00:16.607Z,102328.28
2019-04-01T12:02:46.295Z,102317.66
2019-04-01T12:05:15.999Z,102313.50
2019-04-01T12:07:45.417Z,102311.44
2019-04-01T12:10:14.882Z,102302.52
2019-04-01T12:12:44.544Z,102303.26
2019-04-01T12:15:15.620Z,102299.83
2019-04-01T12:17:45.022Z,102293.98
2019-04-01T12:20:14.421Z,102291.89
2019-04-01T12:22:45.755Z,102288.47
2019-04-01T12:25:15.330Z,102291.52
2019-04-01T12:27:45.282Z,102300.45
2019-04-01T12:30:15.110Z,102279.74
2019-04-01T12:32:44.494Z,102280.91
2019-04-01T12:35:14.131Z,102269.21
2019-04-01T12:37:43.582Z,102272.66
2019-04-01T12:40:13.859Z,102271.02
2019-04-01T12:42:43.337Z,102261.74
2019-04-01T12:45:13.048Z,102258.11
2019-04-01T12:47:43.356Z,102256.50
2019-04-01T12:50:13.330Z,102244.27
2019-04-01T12:52:42.749Z,102239.14
2019-04-01T12:55:13.894Z,102236.56
2019-04-01T12:57:43.398Z,102226.87
2019-04-01T13:00:15.165Z,102223.30
2019-04-01T13:02:44.543Z,102216.12
2019-04-01T13:05:14.096Z,102213.86
2019-04-01T13:07:43.527Z,102209.25
2019-04-01T13:10:13.215Z,102206.17
2019-04-01T13:12:41.880Z,102208.08
2019-04-01T13:15:12.568Z,102198.52
2019-04-01T13:17:42.505Z,102194.83
2019-04-01T13:20:12.195Z,102192.53
2019-04-01T13:22:40.824Z,102185.86
2019-04-01T13:25:10.319Z,102189.97
2019-04-01T13:27:39.772Z,102183.00
2019-04-01T13:30:10.631Z,102178.56
2019-04-01T13:32:40.040Z,102178.34
2019-04-01T13:35:09.594Z,102173.13
2019-04-01T13:37:39.276Z,102161.05
2019-04-01T13:40:09.855Z,102153.50
2019-04-01T13:42:39.228Z,102158.17
2019-04-01T13:45:08.812Z,102154.97
2019-04-01T13:47:41.126Z,102144.12
2019-04-01T13:50:09.938Z,102139.22
2019-04-01T13:52:39.377Z,102139.34
2019-04-01T13:55:10.100Z,102139.61
2019-04-01T13:57:39.827Z,102127.06
2019-04-01T14:00:10.406Z,102119.95
2019-04-01T14:02:39.832Z,102110.67
2019-04-01T14:05:09.748Z,102109.83
2019-04-01T14:07:39.184Z,102108.88
2019-04-01T14:10:09.510Z,102105.66
2019-04-01T14:12:38.916Z,102104.36
2019-04-01T14:15:09.435Z,102093.48
2019-04-01T14:17:38.912Z,102079.34
2019-04-01T14:20:08.631Z,102084.98
2019-04-01T14:22:37.306Z,102076.50
2019-04-01T14:25:08.370Z,102069.61
2019-04-01T14:27:39.280Z,102066.48
2019-04-01T14:30:09.256Z,102062.75
2019-04-01T14:32:38.700Z,102057.83
2019-04-01T14:35:08.307Z,102047.37
2019-04-01T14:37:37.719Z,102053.02
2019-04-01T14:40:08.800Z,102040.51
2019-04-01T14:42:39.557Z,102033.76
2019-04-01T14:45:10.018Z,102030.25
2019-04-01T14:47:55.989Z,102030.35
2019-04-01T14:50:11.058Z,102027.07
2019-04-01T14:52:41.385Z,102025.81
2019-04-01T14:55:11.471Z,102021.94
2019-04-01T14:57:40.142Z,102022.41
2019-04-01T15:00:13.882Z,102020.90
2019-04-01T15:02:43.343Z,102017.22
2019-04-01T15:05:13.056Z,102008.65
2019-04-01T15:07:41.759Z,102012.03
2019-04-01T15:10:11.495Z,102008.53
2019-04-01T15:12:40.157Z,101998.41
2019-04-01T15:15:10.233Z,101995.92
2019-04-01T15:17:39.694Z,101987.74
2019-04-01T15:20:09.398Z,101992.75
2019-04-01T15:22:38.060Z,101984.32
2019-04-01T15:25:08.155Z,101984.68
2019-04-01T15:27:37.557Z,101982.51
2019-04-01T15:30:13.935Z,101976.64
2019-04-01T15:32:41.650Z,101968.96
2019-04-01T15:35:11.193Z,101967.18
2019-04-01T15:37:40.603Z,101965.09
2019-04-01T15:40:10.493Z,101964.01
2019-04-01T15:42:39.898Z,101964.03
2019-04-01T15:45:09.520Z,101961.69
2019-04-01T15:47:38.920Z,101955.34
2019-04-01T15:50:09.405Z,101950.52
2019-04-01T15:52:39.061Z,101945.09
2019-04-01T15:55:09.811Z,101941.20
2019-04-01T15:57:39.159Z,101934.23
2019-04-01T16:00:09.280Z,101930.41
2019-04-01T16:02:38.706Z,101925.61
2019-04-01T16:05:09.125Z,101923.08
2019-04-01T16:07:41.569Z,101918.84
2019-04-01T16:10:10.078Z,101913.81
2019-04-01T16:12:39.471Z,101914.02
2019-04-01T16:15:09.548Z,101913.38
2019-04-01T16:17:39.022Z,101909.35
2019-04-01T16:20:08.783Z,101902.73
2019-04-01T16:22:38.220Z,101903.77
2019-04-01T16:25:08.869Z,101902.77
2019-04-01T16:27:38.516Z,101899.00
2019-04-01T16:30:09.650Z,101893.62
2019-04-01T16:32:39.039Z,101884.56
2019-04-01T16:35:12.832Z,101885.11
2019-04-01T16:37:42.243Z,101880.78
2019-04-01T16:40:11.962Z,101877.34
2019-04-01T16:42:40.616Z,101873.84
2019-04-01T16:45:10.704Z,101872.34
2019-04-01T16:47:40.375Z,101866.92
2019-04-01T16:50:10.399Z,101866.70
2019-04-01T16:52:39.814Z,101863.38
2019-04-01T16:55:13.345Z,101858.52
2019-04-01T16:57:42.749Z,101864.91
2019-04-01T17:00:14.840Z,101864.04
2019-04-01T17:02:44.467Z,101863.52
2019-04-01T17:05:25.589Z,101863.83
2019-04-01T17:07:54.976Z,101859.05
2019-04-01T17:10:25.027Z,101860.87
2019-04-01T17:12:54.535Z,101854.42
2019-04-01T17:15:23.932Z,101855.25
2019-04-01T17:17:53.337Z,101848.73
2019-04-01T17:20:22.756Z,101854.14
2019-04-01T17:22:52.159Z,101856.79
2019-04-01T17:25:21.581Z,101854.81
2019-04-01T17:27:51.278Z,101853.10
2019-04-01T17:30:19.991Z,101851.74
2019-04-01T17:32:49.366Z,101851.88
2019-04-01T17:35:21.711Z,101850.39
2019-04-01T17:37:51.118Z,101841.88
2019-04-01T17:40:20.690Z,101838.73
2019-04-01T17:42:50.094Z,101836.82
2019-04-01T17:45:33.359Z,101833.17
2019-04-01T17:48:04.364Z,101834.17
2019-04-01T17:50:33.986Z,101830.42
2019-04-01T17:53:05.708Z,101833.78
2019-04-01T17:55:35.112Z,101833.81
2019-04-01T17:58:05.359Z,101830.08
2019-04-01T18:00:39.900Z,101833.21
2019-04-01T18:03:09.566Z,101833.60
2019-04-01T18:05:39.076Z,101834.08
2019-04-01T18:08:08.460Z,101829.27
2019-04-01T18:10:37.900Z,101825.08
2019-04-01T18:13:07.376Z,101823.69
2019-04-01T18:15:36.998Z,101821.03
2019-04-01T18:18:05.728Z,101822.57
2019-04-01T18:20:35.105Z,101820.94
2019-04-01T18:23:04.632Z,101815.79
2019-04-01T18:25:34.224Z,101813.72
2019-04-01T18:28:03.665Z,101818.70
2019-04-01T18:30:33.119Z,101815.95
2019-04-01T18:33:02.539Z,101816.73
2019-04-01T18:35:31.934Z,101817.78
2019-04-01T18:38:01.342Z,101817.23
2019-04-01T18:40:32.963Z,101815.23
2019-04-01T18:43:01.878Z,101807.38
2019-04-01T18:45:31.278Z,101810.91
2019-04-01T18:48:00.693Z,101808.38
2019-04-01T18:50:30.095Z,101809.81
2019-04-01T18:52:59.495Z,101805.17
2019-04-01T18:55:28.915Z,101813.00
2019-04-01T18:57:58.314Z,101814.70
2019-04-01T19:00:27.777Z,101812.78
2019-04-01T19:02:57.265Z,101805.50
2019-04-01T19:05:26.669Z,101804.47
2019-04-01T19:07:56.319Z,101804.98
2019-04-01T19:10:26.050Z,101800.28
2019-04-01T19:13:05.077Z,101803.19
2019-04-01T19:15:26.497Z,101793.88
2019-04-01T19:17:56.270Z,101793.89
2019-04-01T19:20:25.683Z,101793.09
2019-04-01T19:22:55.978Z,101791.62
2019-04-01T19:25:25.870Z,101790.53
2019-04-01T19:27:55.572Z,101786.84
2019-04-01T19:30:25.024Z,101786.29
2019-04-01T19:32:54.437Z,101785.46
2019-04-01T19:35:23.905Z,101783.02
2019-04-01T19:37:53.317Z,101777.53
2019-04-01T19:40:23.178Z,101782.13
2019-04-01T19:42:52.862Z,101774.56
2019-04-01T19:45:22.329Z,101777.61
2019-04-01T19:47:51.744Z,101775.20
2019-04-01T19:50:30.175Z,101769.83
2019-04-01T19:53:02.796Z,101764.58
2019-04-01T19:55:34.215Z,101768.70
2019-04-01T19:58:05.171Z,101766.69
2019-04-01T20:00:34.791Z,101763.46
2019-04-01T20:03:04.198Z,101760.24
2019-04-01T20:05:33.615Z,101756.24
2019-04-01T20:08:03.066Z,101756.64
2019-04-01T20:10:32.493Z,101755.84
2019-04-01T20:13:01.891Z,101757.78
2019-04-01T20:15:37.417Z,101753.61
2019-04-01T20:18:07.829Z,101747.78
2019-04-01T20:20:37.387Z,101746.32
2019-04-01T20:23:08.692Z,101740.77
2019-04-01T20:25:38.105Z,101739.41
2019-04-01T20:28:07.502Z,101740.17
2019-04-01T20:30:37.938Z,101739.08
2019-04-01T20:33:17.431Z,101732.44
2019-04-01T20:35:38.771Z,101732.64
2019-04-01T20:38:08.179Z,101726.97
2019-04-01T20:40:37.617Z,101722.23
2019-04-01T20:43:06.986Z,101716.28
2019-04-01T20:45:36.386Z,101709.92
2019-04-01T20:48:06.094Z,101711.14
2019-04-01T20:50:34.735Z,101709.23
2019-04-01T20:53:12.093Z,101702.95
2019-04-01T20:55:48.236Z,101706.03
2019-04-01T20:58:13.245Z,101704.53
2019-04-01T21:00:43.600Z,101694.16
2019-04-01T21:03:12.991Z,101696.78
2019-04-01T21:05:42.372Z,101691.33
2019-04-01T21:08:11.819Z,101689.37
2019-04-01T21:10:42.190Z,101687.39
2019-04-01T21:13:11.768Z,101681.80
2019-04-01T21:15:41.204Z,101674.75
2019-04-01T21:18:10.583Z,101672.33
2019-04-01T21:20:39.963Z,101666.17
2019-04-01T21:23:09.376Z,101659.77
2019-04-01T21:25:38.788Z,101652.37
2019-04-01T21:28:08.175Z,101651.78
2019-04-01T21:30:37.581Z,101649.11
2019-04-01T21:33:06.990Z,101642.00
2019-04-01T21:35:38.000Z,101641.84
2019-04-01T21:38:07.486Z,101635.15
2019-04-01T21:40:36.878Z,101630.09
2019-04-01T21:43:06.347Z,101621.99
2019-04-01T21:45:35.777Z,101622.39
2019-04-01T21:48:06.475Z,101617.33
2019-04-01T21:50:36.025Z,101611.31
2019-04-01T21:53:05.506Z,101609.08
2019-04-01T21:55:34.904Z,101602.92
2019-04-01T21:58:04.302Z,101596.53
2019-04-01T22:00:53.646Z,101594.20
2019-04-01T22:03:25.895Z,101589.80
2019-04-01T22:05:55.306Z,101581.88
2019-04-01T22:08:24.701Z,101586.80
2019-04-01T22:10:54.093Z,101584.38
2019-04-01T22:13:23.503Z,101582.95
2019-04-01T22:15:52.902Z,101581.16
2019-04-01T22:18:22.293Z,101586.65
2019-04-01T22:20:51.732Z,101572.70
2019-04-01T22:23:21.131Z,101566.00
2019-04-01T22:25:50.525Z,101563.41
2019-04-01T22:28:19.960Z,101564.66
2019-04-01T22:30:49.337Z,101559.91
2019-04-01T22:33:18.737Z,101555.30
2019-04-01T22:35:48.159Z,101560.34
2019-04-01T22:38:25.133Z,101557.80
2019-04-01T22:40:48.684Z,101553.05
2019-04-01T22:43:18.101Z,101549.81
2019-04-01T22:45:49.101Z,101542.06
2019-04-01T22:48:18.672Z,101537.21
2019-04-01T22:50:48.095Z,101532.05
2019-04-01T22:53:17.486Z,101530.91
2019-04-01T22:55:46.944Z,101526.39
2019-04-01T22:58:16.361Z,101526.55
2019-04-01T23:00:47.016Z,101526.56
2019-04-01T23:03:16.554Z,101521.46
2019-04-01T23:05:45.968Z,101516.45
2019-04-01T23:08:15.624Z,101513.25
2019-04-01T23:10:45.053Z,101509.03
2019-04-01T23:13:14.453Z,101507.85
2019-04-01T23:15:44.246Z,101506.72
2019-04-01T23:18:13.877Z,101506.35
2019-04-01T23:20:43.289Z,101505.50
2019-04-01T23:23:12.687Z,101503.56
2019-04-01T23:25:42.080Z,101498.98
2019-04-01T23:28:11.500Z,101494.32
2019-04-01T23:30:40.881Z,101489.95
2019-04-01T23:33:10.269Z,101489.15
2019-04-01T23:35:39.923Z,101488.14
2019-04-01T23:38:09.318Z,101485.00
2019-04-01T23:40:38.725Z,101483.73
2019-04-01T23:43:08.140Z,101474.25
2019-04-01T23:45:37.542Z,101472.41
2019-04-01T23:48:07.215Z,101468.53
2019-04-01T23:50:37.241Z,101463.39
2019-04-01T23:53:07.568Z,101458.06
2019-04-01T23:55:36.967Z,101454.61
2019-04-01T23:58:06.388Z,101452.94
